Time;durP1;ratioP1;P1;durP2;ratioP2;P2;SDS_P1;SDS_P2;PMS_P1;PMS_P2;Temp;Humidity;BMP_temperature;BMP_pressure;BME280_temperature;BME280_humidity;BME280_pressure;Samples;Min_cycle;Max_cycle;Signal;HPM_P1;HPM_P2
2024/02/12 00:00:20;;;;;;;34.97;15.98;;;7.00;99.90;;;;;;5024300;28;20061;-75
2024/02/12 00:02:46;;;;;;;35.70;15.35;;;7.00;99.90;;;;;;5024791;28;20029;-75
2024/02/12 00:05:12;;;;;;;28.23;14.48;;;7.00;99.90;;;;;;5019596;28;20018;-75
2024/02/12 00:07:38;;;;;;;38.40;15.95;;;6.90;99.90;;;;;;5028541;28;20021;-75
2024/02/12 00:10:05;;;;;;;33.05;16.52;;;7.00;99.90;;;;;;5020397;28;20025;-75
2024/02/12 00:12:34;;;;;;;34.28;15.63;;;7.00;99.90;;;;;;5028371;28;20075;-75
2024/02/12 00:15:00;;;;;;;33.97;16.65;;;7.10;99.90;;;;;;5025576;28;20057;-74
2024/02/12 00:17:28;;;;;;;35.22;16.00;;;7.00;99.90;;;;;;5018448;28;20026;-74
2024/02/12 00:19:55;;;;;;;35.85;16.52;;;7.00;99.90;;;;;;5021711;28;20368;-75
2024/02/12 00:22:23;;;;;;;33.20;15.70;;;7.00;99.90;;;;;;5020020;28;20106;-75
2024/02/12 00:24:49;;;;;;;31.55;15.73;;;6.90;99.90;;;;;;5025719;28;20079;-76
2024/02/12 00:27:16;;;;;;;30.48;15.43;;;6.90;99.90;;;;;;5033647;28;20032;-75
2024/02/12 00:29:42;;;;;;;31.23;16.40;;;6.90;99.90;;;;;;5030817;28;20181;-75
2024/02/12 00:32:10;;;;;;;36.20;15.50;;;6.80;99.90;;;;;;5031260;28;20367;-76
2024/02/12 00:34:36;;;;;;;32.08;13.13;;;6.80;99.90;;;;;;5028726;28;20037;-74
2024/02/12 00:37:02;;;;;;;34.25;15.23;;;6.80;99.90;;;;;;5025984;28;20026;-75
2024/02/12 00:39:29;;;;;;;37.13;14.52;;;6.90;99.90;;;;;;5031677;28;20029;-76
2024/02/12 00:41:55;;;;;;;35.53;14.88;;;7.00;99.90;;;;;;5029315;28;20029;-75
2024/02/12 00:44:20;;;;;;;41.83;16.38;;;7.10;99.90;;;;;;5026128;28;20538;-75
2024/02/12 00:46:47;;;;;;;42.17;15.80;;;7.10;99.90;;;;;;5029990;28;20033;-75
2024/02/12 00:49:15;;;;;;;36.70;15.13;;;7.20;99.90;;;;;;5032168;28;20080;-75
2024/02/12 00:51:42;;;;;;;34.72;15.27;;;7.20;99.90;;;;;;5033873;28;20032;-75
2024/02/12 00:54:10;;;;;;;32.67;14.32;;;7.30;99.90;;;;;;5023312;28;20068;-76
2024/02/12 00:56:37;;;;;;;35.92;16.25;;;7.30;99.90;;;;;;5023637;28;20029;-75
2024/02/12 00:59:03;;;;;;;36.10;15.85;;;7.30;99.90;;;;;;5025574;28;20055;-75
2024/02/12 01:01:28;;;;;;;41.72;16.55;;;7.30;99.90;;;;;;5027527;28;20050;-76
2024/02/12 01:03:54;;;;;;;28.15;14.98;;;7.40;99.90;;;;;;5021827;28;20022;-76
2024/02/12 01:06:20;;;;;;;28.30;14.68;;;7.40;99.90;;;;;;5031435;28;20069;-75
2024/02/12 01:08:45;;;;;;;31.15;14.20;;;7.40;99.90;;;;;;5031180;28;20454;-75
2024/02/12 01:11:11;;;;;;;36.50;14.95;;;7.40;99.90;;;;;;5029716;28;20083;-76
2024/02/12 01:13:36;;;;;;;32.20;15.00;;;7.50;99.90;;;;;;5023252;28;20474;-76
2024/02/12 01:16:02;;;;;;;29.92;15.90;;;7.40;99.90;;;;;;5024536;28;20057;-75
2024/02/12 01:18:28;;;;;;;40.08;15.07;;;7.50;99.90;;;;;;5023123;28;20060;-76
2024/02/12 01:20:55;;;;;;;38.28;17.30;;;7.50;99.90;;;;;;5031226;28;20037;-75
2024/02/12 01:23:21;;;;;;;33.90;16.60;;;7.50;99.90;;;;;;5025498;28;20029;-75
2024/02/12 01:25:50;;;;;;;30.67;15.75;;;7.50;99.90;;;;;;5024710;28;20025;-75
2024/02/12 01:28:15;;;;;;;38.45;16.08;;;7.50;99.90;;;;;;5029016;28;20057;-75
2024/02/12 01:30:42;;;;;;;48.80;18.20;;;7.50;99.90;;;;;;5028838;28;20500;-75
2024/02/12 01:33:08;;;;;;;37.03;17.35;;;7.50;99.90;;;;;;5023796;28;20533;-75
2024/02/12 01:35:33;;;;;;;32.20;16.08;;;7.50;99.90;;;;;;5024954;28;20025;-75
2024/02/12 01:37:59;;;;;;;34.75;16.73;;;7.60;99.90;;;;;;5024930;28;20079;-75
2024/02/12 01:40:25;;;;;;;39.10;18.00;;;7.60;99.90;;;;;;5030146;28;20045;-75
2024/02/12 01:42:50;;;;;;;36.50;17.33;;;7.60;99.90;;;;;;5015062;28;20037;-74
2024/02/12 01:45:23;;;;;;;36.40;16.77;;;7.60;99.90;;;;;;5026366;28;20025;-74
2024/02/12 01:47:57;;;;;;;38.47;17.27;;;7.60;99.90;;;;;;5019193;28;20045;-75
2024/02/12 01:50:23;;;;;;;34.42;17.00;;;7.50;99.90;;;;;;5026153;28;20021;-74
2024/02/12 01:52:50;;;;;;;42.25;18.38;;;7.50;99.90;;;;;;5028621;28;20112;-75
2024/02/12 01:55:16;;;;;;;34.95;17.52;;;7.50;99.90;;;;;;5031011;28;20040;-74
2024/02/12 01:57:46;;;;;;;35.28;17.58;;;7.50;99.90;;;;;;5028364;28;20053;-75
2024/02/12 02:00:17;;;;;;;43.20;20.00;;;7.50;99.90;;;;;;5031269;28;20108;-74
2024/02/12 02:02:44;;;;;;;35.63;17.52;;;7.50;99.90;;;;;;5023117;28;20498;-75
2024/02/12 02:05:12;;;;;;;44.40;19.00;;;7.50;99.90;;;;;;5024969;28;20026;-74
2024/02/12 02:07:38;;;;;;;40.08;19.05;;;7.50;99.90;;;;;;5029328;28;20032;-74
2024/02/12 02:10:09;;;;;;;48.47;21.05;;;7.50;99.90;;;;;;5025919;28;20023;-73
2024/02/12 02:12:36;;;;;;;45.33;20.98;;;7.60;99.90;;;;;;5023670;28;20033;-74
2024/02/12 02:15:02;;;;;;;38.70;19.88;;;7.60;99.90;;;;;;5025868;28;20136;-74
2024/02/12 02:17:28;;;;;;;42.72;20.73;;;7.60;99.90;;;;;;5025984;28;20105;-74
2024/02/12 02:19:54;;;;;;;45.75;21.45;;;7.60;99.90;;;;;;5030088;28;20501;-75
2024/02/12 02:22:20;;;;;;;44.05;21.23;;;7.60;99.90;;;;;;5029241;28;20055;-74
2024/02/12 02:24:46;;;;;;;47.95;21.90;;;7.60;99.90;;;;;;5027861;28;20025;-74
2024/02/12 02:27:11;;;;;;;42.47;21.05;;;7.50;99.90;;;;;;5026746;28;20030;-74
2024/02/12 02:29:37;;;;;;;48.38;23.17;;;7.40;99.90;;;;;;5028532;28;20500;-74
2024/02/12 02:32:04;;;;;;;49.30;21.40;;;7.40;99.90;;;;;;5027860;28;20035;-74
2024/02/12 02:34:29;;;;;;;44.92;21.73;;;7.40;99.90;;;;;;5027726;28;20489;-75
2024/02/12 02:36:56;;;;;;;46.88;21.13;;;7.30;99.90;;;;;;5028628;28;20029;-75
2024/02/12 02:39:22;;;;;;;52.30;23.58;;;7.20;99.90;;;;;;5028168;28;20072;-74
2024/02/12 02:41:48;;;;;;;48.70;23.45;;;7.20;99.90;;;;;;5027078;28;20449;-74
2024/02/12 02:44:14;;;;;;;41.65;20.42;;;7.20;99.90;;;;;;5027044;28;20059;-74
2024/02/12 02:46:40;;;;;;;51.20;22.70;;;7.20;99.90;;;;;;5028287;28;20029;-74
2024/02/12 02:49:05;;;;;;;46.35;24.15;;;7.20;99.90;;;;;;5027751;28;20616;-75
2024/02/12 02:51:31;;;;;;;54.03;23.27;;;7.20;99.90;;;;;;5026279;28;20057;-74
2024/02/12 02:53:57;;;;;;;52.28;21.92;;;7.20;99.90;;;;;;5027291;28;20040;-74
2024/02/12 02:56:24;;;;;;;47.60;22.92;;;7.10;99.90;;;;;;5030296;28;20038;-74
2024/02/12 02:58:50;;;;;;;49.58;21.63;;;7.20;99.90;;;;;;5029827;28;20021;-75
2024/02/12 03:01:19;;;;;;;48.53;21.85;;;7.10;99.90;;;;;;5018180;28;20125;-74
2024/02/12 03:03:50;;;;;;;51.00;22.58;;;7.20;99.90;;;;;;5024807;28;20030;-75
2024/02/12 03:06:19;;;;;;;51.92;21.75;;;7.20;99.90;;;;;;5028513;28;20041;-74
2024/02/12 03:08:48;;;;;;;50.90;22.95;;;7.20;99.90;;;;;;5018671;28;20017;-74
2024/02/12 03:11:24;;;;;;;49.38;22.55;;;7.20;99.90;;;;;;5023051;28;20025;-74
2024/02/12 03:13:54;;;;;;;50.95;22.58;;;7.20;99.90;;;;;;5028542;28;20428;-74
2024/02/12 03:16:22;;;;;;;46.92;20.95;;;7.20;99.90;;;;;;5027422;28;20470;-75
2024/02/12 03:18:48;;;;;;;49.85;22.40;;;7.10;99.90;;;;;;5028234;28;20032;-75
2024/02/12 03:21:21;;;;;;;53.67;23.25;;;7.00;99.90;;;;;;5025092;28;20038;-75
2024/02/12 03:23:47;;;;;;;55.92;22.17;;;7.00;99.90;;;;;;5025560;28;20116;-75
2024/02/12 03:26:17;;;;;;;44.13;22.48;;;6.90;99.90;;;;;;5021120;28;20084;-75
2024/02/12 03:28:43;;;;;;;49.10;21.75;;;6.80;99.90;;;;;;5028836;28;20026;-75
2024/02/12 03:31:09;;;;;;;49.85;23.30;;;6.70;99.90;;;;;;5020797;28;20064;-75
2024/02/12 03:33:36;;;;;;;49.15;22.73;;;6.70;99.90;;;;;;5028166;28;20146;-74
2024/02/12 03:36:02;;;;;;;49.33;21.85;;;6.60;99.90;;;;;;5019598;28;20029;-75
2024/02/12 03:38:27;;;;;;;54.25;22.27;;;6.60;99.90;;;;;;5029064;28;20071;-74
2024/02/12 03:40:53;;;;;;;49.53;22.23;;;6.50;99.90;;;;;;5022656;28;20022;-75
2024/02/12 03:43:22;;;;;;;49.97;22.88;;;6.40;99.90;;;;;;5023067;28;20042;-74
2024/02/12 03:45:48;;;;;;;48.50;21.85;;;6.30;99.90;;;;;;5019866;28;20022;-75
2024/02/12 04:01:55;;;;;;;54.85;23.38;;;6.10;99.90;;;;;;5028303;28;20112;-74
2024/02/12 04:04:21;;;;;;;52.88;23.00;;;6.10;99.90;;;;;;5032826;28;20429;-75
2024/02/12 04:06:46;;;;;;;56.60;23.50;;;6.00;99.90;;;;;;5023630;28;20030;-75
2024/02/12 04:09:12;;;;;;;56.63;23.70;;;6.00;99.90;;;;;;5029269;28;20025;-74
2024/02/12 04:11:41;;;;;;;62.72;25.17;;;5.90;99.90;;;;;;5033942;28;20017;-74
2024/02/12 04:14:09;;;;;;;55.40;24.10;;;5.90;99.90;;;;;;5030299;28;20036;-74
2024/02/12 04:16:38;;;;;;;58.17;24.05;;;5.90;99.90;;;;;;5032548;28;20112;-75
2024/02/12 04:19:05;;;;;;;62.72;24.83;;;5.80;99.90;;;;;;5029899;28;20125;-74
2024/02/12 04:21:32;;;;;;;59.47;26.17;;;5.80;99.90;;;;;;5034177;28;20038;-75
2024/02/12 04:24:03;;;;;;;64.70;24.52;;;5.80;99.90;;;;;;5028754;28;20038;-74
2024/02/12 04:26:30;;;;;;;62.20;23.98;;;5.70;99.90;;;;;;5027632;28;20033;-74
2024/02/12 04:29:00;;;;;;;67.07;23.85;;;5.60;99.90;;;;;;5031967;28;20105;-74
2024/02/12 04:31:27;;;;;;;58.55;23.17;;;5.60;99.90;;;;;;5033039;28;20033;-74
2024/02/12 04:33:53;;;;;;;67.22;24.23;;;5.60;99.90;;;;;;5031283;28;20052;-74
2024/02/12 04:36:19;;;;;;;65.82;24.52;;;5.50;99.90;;;;;;5028831;28;20056;-74
2024/02/12 04:38:45;;;;;;;68.05;25.38;;;5.40;99.90;;;;;;5030333;28;20028;-75
2024/02/12 04:41:12;;;;;;;57.50;23.73;;;5.40;99.90;;;;;;5030078;28;20033;-74
2024/02/12 04:43:38;;;;;;;60.05;25.10;;;5.40;99.90;;;;;;5030881;28;20026;-74
2024/02/12 04:46:04;;;;;;;64.40;24.45;;;5.40;99.90;;;;;;5026616;28;20076;-74
2024/02/12 04:48:31;;;;;;;57.85;25.00;;;5.30;99.90;;;;;;5023924;28;20049;-74
2024/02/12 04:50:56;;;;;;;65.72;26.55;;;5.30;99.90;;;;;;5027046;28;20382;-75
2024/02/12 04:53:23;;;;;;;58.00;24.88;;;5.30;99.90;;;;;;5026881;28;20025;-73
2024/02/12 04:55:49;;;;;;;72.47;26.58;;;5.30;99.90;;;;;;5028006;28;20037;-74
2024/02/12 04:58:14;;;;;;;68.15;27.35;;;5.20;99.90;;;;;;5025878;28;20504;-73
2024/02/12 05:00:40;;;;;;;68.35;27.10;;;5.20;99.90;;;;;;5032755;28;20049;-74
2024/02/12 05:03:07;;;;;;;70.05;28.02;;;5.30;99.90;;;;;;5022663;28;20087;-74
2024/02/12 05:05:33;;;;;;;75.35;27.67;;;5.30;99.90;;;;;;5030471;28;20021;-74
2024/02/12 05:08:03;;;;;;;73.55;28.38;;;5.30;99.90;;;;;;5032438;28;20038;-73
2024/02/12 05:10:29;;;;;;;81.13;29.33;;;5.30;99.90;;;;;;5028764;28;20033;-73
2024/02/12 05:12:55;;;;;;;76.20;29.15;;;5.40;99.90;;;;;;5028614;28;20032;-73
2024/02/12 05:15:20;;;;;;;69.38;28.45;;;5.40;99.90;;;;;;5030800;28;20029;-73
2024/02/12 05:17:54;;;;;;;69.95;28.10;;;5.40;99.90;;;;;;5027399;28;20091;-73
2024/02/12 05:23:08;;;;;;;79.10;29.48;;;5.50;99.90;;;;;;5021615;28;20060;-75
2024/02/12 05:25:34;;;;;;;70.70;28.25;;;5.50;99.90;;;;;;5023617;28;20022;-75
2024/02/12 05:28:00;;;;;;;81.70;28.75;;;5.50;99.90;;;;;;5014422;28;20137;-75
2024/02/12 05:30:26;;;;;;;79.50;30.40;;;5.50;99.90;;;;;;5024028;28;20104;-75
2024/02/12 05:32:52;;;;;;;66.70;27.25;;;5.60;99.90;;;;;;5016852;28;20439;-75
2024/02/12 05:35:18;;;;;;;70.20;28.58;;;5.60;99.90;;;;;;5019216;28;20041;-74
2024/02/12 05:37:44;;;;;;;70.40;29.75;;;5.60;99.90;;;;;;5030344;28;20048;-75
2024/02/12 05:40:10;;;;;;;84.47;29.92;;;5.60;99.90;;;;;;5030460;28;20088;-75
2024/02/12 05:42:39;;;;;;;78.93;30.13;;;5.70;99.90;;;;;;5025757;28;20145;-76
2024/02/12 05:45:05;;;;;;;77.35;31.05;;;5.70;99.90;;;;;;5028766;28;20026;-75
2024/02/12 05:47:30;;;;;;;76.80;29.23;;;5.70;99.90;;;;;;5027191;28;20026;-75
2024/02/12 05:49:56;;;;;;;71.85;28.75;;;5.80;99.90;;;;;;5031104;28;20501;-75
2024/02/12 05:52:22;;;;;;;68.35;28.50;;;5.80;99.90;;;;;;5031801;28;20017;-75
2024/02/12 05:54:47;;;;;;;74.93;28.55;;;5.90;99.90;;;;;;5021233;28;20515;-75
2024/02/12 05:57:13;;;;;;;68.13;28.30;;;5.90;99.90;;;;;;5023846;28;20128;-75
2024/02/12 05:59:39;;;;;;;69.10;28.65;;;6.10;99.90;;;;;;5025495;28;20029;-74
2024/02/12 06:02:05;;;;;;;70.70;28.70;;;6.10;99.90;;;;;;5013998;28;20165;-75
2024/02/12 06:04:31;;;;;;;68.13;27.10;;;6.20;99.90;;;;;;5024351;28;20034;-74
2024/02/12 06:06:58;;;;;;;70.00;28.30;;;6.30;99.90;;;;;;5027867;28;20017;-74
2024/02/12 06:09:24;;;;;;;70.05;28.63;;;6.30;99.90;;;;;;5023401;28;20021;-74
2024/02/12 06:11:50;;;;;;;66.78;28.80;;;6.40;99.90;;;;;;5029122;28;20048;-75
2024/02/12 06:14:16;;;;;;;74.68;28.67;;;6.40;99.90;;;;;;5025190;28;20534;-73
2024/02/12 06:16:42;;;;;;;60.75;26.45;;;6.40;99.90;;;;;;5021638;28;20021;-75
2024/02/12 06:19:08;;;;;;;69.55;27.80;;;6.50;99.90;;;;;;5019385;28;20108;-77
2024/02/12 06:21:35;;;;;;;60.78;25.65;;;6.50;99.90;;;;;;5018817;28;20124;-74
2024/02/12 06:24:06;;;;;;;68.35;27.20;;;6.60;99.90;;;;;;5021575;28;20022;-74
2024/02/12 06:26:33;;;;;;;67.32;28.35;;;6.60;99.90;;;;;;5020182;28;20474;-75
2024/02/12 06:28:59;;;;;;;61.55;28.33;;;6.60;99.90;;;;;;5018100;28;20517;-74
2024/02/12 06:31:25;;;;;;;66.50;26.02;;;6.70;99.90;;;;;;5017232;28;20116;-75
2024/02/12 06:33:51;;;;;;;64.55;26.85;;;6.70;99.90;;;;;;5023381;28;20022;-75
2024/02/12 06:36:16;;;;;;;66.55;26.95;;;6.70;99.90;;;;;;5024564;28;20056;-75
2024/02/12 06:38:42;;;;;;;63.92;27.35;;;6.70;99.90;;;;;;5009145;28;20028;-76
2024/02/12 06:41:09;;;;;;;58.53;25.75;;;6.70;99.90;;;;;;5022830;28;20055;-74
2024/02/12 06:43:37;;;;;;;64.40;26.70;;;6.70;99.90;;;;;;5027774;28;20124;-75
2024/02/12 06:46:03;;;;;;;61.58;26.10;;;6.80;99.90;;;;;;5026749;28;20033;-75
2024/02/12 06:48:29;;;;;;;62.88;24.55;;;6.80;99.90;;;;;;5020441;28;20148;-74
2024/02/12 06:50:54;;;;;;;59.20;25.92;;;6.80;99.90;;;;;;5027483;28;20022;-74
2024/02/12 06:53:20;;;;;;;54.45;23.15;;;6.80;99.90;;;;;;5026440;28;20026;-74
2024/02/12 06:55:46;;;;;;;55.22;24.90;;;6.80;99.90;;;;;;5026795;28;20087;-74
2024/02/12 06:58:12;;;;;;;56.35;25.00;;;6.80;99.90;;;;;;5026049;28;20061;-75
2024/02/12 07:00:37;;;;;;;53.28;24.27;;;6.90;99.90;;;;;;5020690;28;20039;-75
2024/02/12 07:03:05;;;;;;;54.65;24.42;;;6.80;99.90;;;;;;5024293;28;20131;-76
2024/02/12 07:05:31;;;;;;;56.22;24.95;;;6.90;99.90;;;;;;5022343;28;20025;-75
2024/02/12 07:07:57;;;;;;;51.78;22.45;;;6.90;99.90;;;;;;5016148;28;20022;-75
2024/02/12 07:10:25;;;;;;;51.03;22.95;;;6.90;99.90;;;;;;5017540;28;20030;-75
2024/02/12 07:12:51;;;;;;;46.95;21.50;;;6.90;99.90;;;;;;5001272;28;20086;-75
2024/02/12 07:15:17;;;;;;;52.25;22.95;;;7.00;99.90;;;;;;5004701;28;20501;-75
2024/02/12 07:17:43;;;;;;;45.20;21.52;;;7.00;99.90;;;;;;5009100;28;20033;-76
2024/02/12 07:20:12;;;;;;;50.40;24.58;;;7.00;99.90;;;;;;5008153;28;20477;-78
2024/02/12 07:22:37;;;;;;;50.40;21.80;;;7.10;99.90;;;;;;5007442;28;20038;-75
2024/02/12 07:25:04;;;;;;;46.45;22.92;;;7.10;99.90;;;;;;4999790;28;20033;-75
2024/02/12 07:27:30;;;;;;;48.28;22.48;;;7.10;99.90;;;;;;5022527;28;20467;-74
2024/02/12 07:29:55;;;;;;;47.58;23.95;;;7.10;99.90;;;;;;5011670;28;20477;-75
2024/02/12 07:32:21;;;;;;;53.70;25.48;;;7.10;99.90;;;;;;5007002;28;20053;-74
2024/02/12 07:34:47;;;;;;;58.33;25.30;;;7.10;99.90;;;;;;5007518;28;20087;-75
2024/02/12 07:37:13;;;;;;;55.90;26.70;;;7.00;99.90;;;;;;5012206;28;20030;-75
2024/02/12 07:39:39;;;;;;;56.03;26.88;;;7.10;99.90;;;;;;5011380;28;20067;-75
2024/02/12 07:42:11;;;;;;;60.13;26.00;;;7.10;99.90;;;;;;5028229;28;20053;-75
2024/02/12 07:44:37;;;;;;;60.10;27.75;;;7.00;99.90;;;;;;5028225;28;20030;-75
2024/02/12 07:47:05;;;;;;;60.58;28.63;;;7.00;99.90;;;;;;5021165;28;20060;-75
2024/02/12 07:49:31;;;;;;;66.78;30.17;;;7.10;99.90;;;;;;5022285;28;20037;-77
2024/02/12 07:51:59;;;;;;;63.55;29.52;;;7.00;99.90;;;;;;5029854;28;20028;-75
2024/02/12 07:54:26;;;;;;;64.03;30.42;;;7.10;99.90;;;;;;5005637;28;20389;-76
2024/02/12 07:56:52;;;;;;;68.85;30.65;;;7.00;99.90;;;;;;5013856;28;20022;-75
2024/02/12 07:59:17;;;;;;;70.43;30.88;;;7.00;99.90;;;;;;5027491;28;20022;-76
2024/02/12 08:01:43;;;;;;;60.35;28.20;;;7.00;99.90;;;;;;5021986;28;20113;-75
2024/02/12 08:04:08;;;;;;;64.10;30.98;;;7.00;99.90;;;;;;5009790;28;20320;-77
2024/02/12 08:06:35;;;;;;;57.88;30.05;;;7.00;99.90;;;;;;5007885;28;20129;-75
2024/02/12 08:09:00;;;;;;;72.43;33.08;;;7.00;99.90;;;;;;5011241;28;20159;-73
2024/02/12 08:11:26;;;;;;;65.03;32.20;;;7.00;99.90;;;;;;5005379;28;20033;-73
2024/02/12 08:13:51;;;;;;;71.00;32.58;;;6.90;99.90;;;;;;5012429;28;20022;-73
2024/02/12 08:16:17;;;;;;;65.38;30.70;;;6.90;99.90;;;;;;5020534;28;20037;-74
2024/02/12 08:18:42;;;;;;;72.13;32.63;;;6.90;99.90;;;;;;5025195;28;20026;-74
2024/02/12 08:21:08;;;;;;;73.53;34.50;;;6.90;99.90;;;;;;5023962;28;20029;-74
2024/02/12 08:23:34;;;;;;;76.30;32.90;;;6.90;99.90;;;;;;5025200;28;20029;-74
2024/02/12 08:26:00;;;;;;;69.13;31.35;;;7.00;99.90;;;;;;5023481;28;20029;-74
2024/02/12 08:28:26;;;;;;;72.85;32.72;;;7.00;99.90;;;;;;5032007;28;20037;-74
2024/02/12 08:30:51;;;;;;;69.00;33.60;;;7.10;99.90;;;;;;5021290;28;20474;-74
2024/02/12 08:33:17;;;;;;;72.70;32.92;;;7.20;99.90;;;;;;5027588;28;20033;-74
2024/02/12 08:35:42;;;;;;;65.18;32.22;;;7.30;99.90;;;;;;5020020;28;20034;-75
2024/02/12 08:38:09;;;;;;;71.60;34.08;;;7.50;99.90;;;;;;5017120;28;20021;-74
2024/02/12 08:40:36;;;;;;;68.22;31.77;;;7.60;99.90;;;;;;5027600;28;20030;-74
2024/02/12 08:43:02;;;;;;;69.03;32.50;;;7.70;99.90;;;;;;5029570;28;20452;-74
2024/02/12 08:45:28;;;;;;;68.00;32.10;;;7.80;99.90;;;;;;5031445;28;20030;-73
2024/02/12 08:47:53;;;;;;;74.18;32.35;;;7.90;99.90;;;;;;5026713;28;20049;-75
2024/02/12 08:50:19;;;;;;;67.20;32.47;;;8.00;99.90;;;;;;5031300;28;20025;-74
2024/02/12 08:52:46;;;;;;;61.60;29.92;;;8.00;99.90;;;;;;5020321;28;20077;-74
2024/02/12 08:55:11;;;;;;;67.20;32.03;;;8.10;99.90;;;;;;5022960;28;20426;-75
2024/02/12 08:57:44;;;;;;;67.32;31.92;;;8.10;99.90;;;;;;5028547;28;20120;-74
2024/02/12 09:00:12;;;;;;;67.63;32.65;;;8.20;99.90;;;;;;5027437;28;20033;-74
2024/02/12 09:02:37;;;;;;;65.55;31.40;;;8.20;99.90;;;;;;5008077;28;20029;-75
2024/02/12 09:05:09;;;;;;;63.90;32.88;;;8.30;99.90;;;;;;5030012;28;20148;-75
2024/02/12 09:07:34;;;;;;;62.20;30.80;;;8.30;99.90;;;;;;5026092;28;20038;-75
2024/02/12 09:10:00;;;;;;;65.00;31.25;;;8.30;99.90;;;;;;5014156;28;20035;-75
2024/02/12 09:12:27;;;;;;;61.15;31.48;;;8.40;99.90;;;;;;5020460;28;20049;-75
2024/02/12 09:14:53;;;;;;;62.72;30.85;;;8.40;99.90;;;;;;5023557;28;20025;-76
2024/02/12 09:17:18;;;;;;;68.07;33.80;;;8.40;99.90;;;;;;5031439;28;20053;-75
2024/02/12 09:19:44;;;;;;;62.95;30.60;;;8.40;99.90;;;;;;5037072;28;20109;-74
2024/02/12 09:22:10;;;;;;;67.30;33.13;;;8.40;99.90;;;;;;5032764;28;20048;-76
2024/02/12 09:24:38;;;;;;;59.90;30.65;;;8.50;99.90;;;;;;5020818;28;20087;-75
2024/02/12 09:27:05;;;;;;;60.85;30.42;;;8.50;99.90;;;;;;5035316;28;20816;-75
2024/02/12 09:29:31;;;;;;;55.28;30.02;;;8.40;99.90;;;;;;5030586;28;20025;-75
2024/02/12 09:31:56;;;;;;;54.45;29.25;;;8.40;99.90;;;;;;5026037;28;20021;-75
2024/02/12 09:34:22;;;;;;;54.53;27.92;;;8.40;99.90;;;;;;5026932;28;20104;-75
2024/02/12 09:36:48;;;;;;;52.25;27.58;;;8.40;99.90;;;;;;5041118;28;20436;-75
2024/02/12 09:39:15;;;;;;;50.30;26.67;;;8.40;99.90;;;;;;5031615;28;20026;-76
2024/02/12 09:41:47;;;;;;;47.20;26.90;;;8.40;99.90;;;;;;5026489;28;20046;-76
2024/02/12 09:44:17;;;;;;;48.80;24.33;;;8.50;99.90;;;;;;5024982;28;20406;-76
2024/02/12 09:46:48;;;;;;;42.90;24.88;;;8.50;99.90;;;;;;5025688;28;20409;-77
2024/02/12 09:49:16;;;;;;;44.03;23.75;;;8.50;99.90;;;;;;5024066;28;20528;-76
2024/02/12 09:51:43;;;;;;;43.17;23.95;;;8.50;99.90;;;;;;5025049;28;20137;-75
2024/02/12 09:54:10;;;;;;;45.33;23.45;;;8.50;99.90;;;;;;5037175;28;20053;-77
2024/02/12 09:56:38;;;;;;;47.92;25.15;;;8.50;99.90;;;;;;5026708;28;20030;-76
2024/02/12 09:59:03;;;;;;;42.22;22.52;;;8.50;99.90;;;;;;5024632;28;20030;-75
2024/02/12 10:01:31;;;;;;;47.47;23.08;;;8.60;99.90;;;;;;5019151;28;20064;-76
2024/02/12 10:03:57;;;;;;;35.55;20.92;;;8.50;99.90;;;;;;5021742;28;20040;-77
2024/02/12 10:06:23;;;;;;;43.45;21.50;;;8.50;99.90;;;;;;5021784;28;20029;-75
2024/02/12 10:08:49;;;;;;;42.78;20.83;;;8.50;99.90;;;;;;5021344;28;20419;-75
2024/02/12 10:11:24;;;;;;;42.63;21.73;;;8.60;99.90;;;;;;5017163;28;20029;-76
2024/02/12 10:13:50;;;;;;;31.17;18.60;;;8.60;99.90;;;;;;5023297;28;20022;-77
2024/02/12 10:16:16;;;;;;;34.08;19.15;;;8.70;99.90;;;;;;5019286;28;20108;-76
2024/02/12 10:18:43;;;;;;;37.95;18.35;;;8.80;99.90;;;;;;5017584;28;20426;-77
2024/02/12 10:21:09;;;;;;;33.38;19.45;;;8.80;99.90;;;;;;5014991;28;20073;-76
2024/02/12 10:23:36;;;;;;;28.23;16.15;;;8.90;99.90;;;;;;5022746;28;20623;-76
2024/02/12 10:26:02;;;;;;;32.15;16.77;;;8.90;99.90;;;;;;5025679;28;20030;-75
2024/02/12 10:28:28;;;;;;;26.85;16.40;;;8.90;99.90;;;;;;5026600;28;20518;-76
2024/02/12 10:30:53;;;;;;;23.08;15.05;;;8.90;99.90;;;;;;5033325;28;20018;-76
2024/02/12 10:33:22;;;;;;;22.17;13.75;;;8.90;99.90;;;;;;5035631;28;20036;-76
2024/02/12 10:35:50;;;;;;;24.42;14.50;;;8.90;99.90;;;;;;5027526;28;20099;-76
2024/02/12 10:38:16;;;;;;;26.85;13.32;;;8.90;99.90;;;;;;5039407;28;20091;-76
2024/02/12 10:41:01;;;;;;;25.77;14.35;;;8.90;99.90;;;;;;5022614;28;20025;-75
2024/02/12 10:43:31;;;;;;;22.88;13.02;;;8.90;99.90;;;;;;5028225;28;20033;-75
2024/02/12 10:45:59;;;;;;;27.65;11.45;;;8.90;99.90;;;;;;5026564;28;20090;-75
2024/02/12 10:48:27;;;;;;;18.27;10.73;;;8.90;99.90;;;;;;5043193;28;20073;-74
2024/02/12 10:50:55;;;;;;;22.13;9.95;;;8.80;99.90;;;;;;5029780;28;20422;-75
2024/02/12 10:53:23;;;;;;;20.55;11.40;;;8.80;99.90;;;;;;5024395;28;20029;-75
2024/02/12 10:55:49;;;;;;;21.65;11.50;;;8.90;99.90;;;;;;5031243;28;20040;-74
2024/02/12 10:58:16;;;;;;;17.98;8.48;;;8.90;99.90;;;;;;5032135;28;20029;-75
2024/02/12 11:00:57;;;;;;;16.00;8.10;;;9.00;99.90;;;;;;5026426;28;20037;-75
2024/02/12 11:03:51;;;;;;;14.98;7.40;;;9.00;99.90;;;;;;5024966;28;20033;-75
2024/02/12 11:06:18;;;;;;;16.70;7.60;;;9.20;99.90;;;;;;5027942;28;20092;-75
2024/02/12 11:08:48;;;;;;;17.90;6.35;;;9.30;99.90;;;;;;5022797;28;20026;-75
2024/02/12 11:11:24;;;;;;;16.60;6.28;;;9.40;99.90;;;;;;5029451;28;20596;-76
2024/02/12 11:13:57;;;;;;;13.45;7.28;;;9.40;99.90;;;;;;5026043;28;20037;-76
2024/02/12 11:16:23;;;;;;;14.15;7.10;;;9.40;99.90;;;;;;5038155;28;20473;-75
2024/02/12 11:18:58;;;;;;;14.48;6.97;;;9.50;99.90;;;;;;5028631;28;20060;-76
2024/02/12 11:21:35;;;;;;;18.60;7.78;;;9.40;99.90;;;;;;5027034;28;20034;-76
2024/02/12 11:24:12;;;;;;;14.70;7.30;;;9.30;99.90;;;;;;5027991;28;20401;-74
2024/02/12 11:26:43;;;;;;;14.68;6.85;;;9.40;99.90;;;;;;5025477;28;20505;-73
2024/02/12 11:29:11;;;;;;;16.88;7.38;;;9.50;99.90;;;;;;5029850;28;20033;-73
2024/02/12 11:31:40;;;;;;;15.43;6.22;;;9.40;99.90;;;;;;5028401;28;20030;-74
2024/02/12 11:34:20;;;;;;;11.15;6.43;;;9.40;99.90;;;;;;5018897;28;20040;-75
2024/02/12 11:37:03;;;;;;;13.07;7.32;;;9.40;99.90;;;;;;5022212;28;20064;-75
2024/02/12 11:39:30;;;;;;;14.45;6.70;;;9.40;99.90;;;;;;5029241;28;20087;-74
2024/02/12 11:41:57;;;;;;;11.60;6.28;;;9.40;99.90;;;;;;5029642;28;20107;-75
2024/02/12 11:44:24;;;;;;;11.20;6.07;;;9.60;99.90;;;;;;5022698;28;20061;-75
2024/02/12 11:46:56;;;;;;;15.80;7.32;;;9.70;99.90;;;;;;5025763;28;20513;-76
2024/02/12 11:49:22;;;;;;;15.38;6.95;;;9.70;99.90;;;;;;5026942;28;20041;-76
2024/02/12 11:51:49;;;;;;;14.23;6.90;;;9.70;99.90;;;;;;5026705;28;20032;-76
2024/02/12 11:54:15;;;;;;;13.40;6.93;;;9.60;99.90;;;;;;5019259;28;20032;-77
2024/02/12 11:56:43;;;;;;;12.93;6.35;;;9.60;99.90;;;;;;5027090;28;20524;-74
2024/02/12 11:59:10;;;;;;;13.43;6.95;;;9.60;99.90;;;;;;5017998;28;20402;-77
2024/02/12 12:01:36;;;;;;;10.00;5.80;;;9.60;99.90;;;;;;5014798;28;20069;-75
2024/02/12 12:04:03;;;;;;;12.30;5.80;;;9.60;99.90;;;;;;5020809;28;20109;-75
2024/02/12 12:06:31;;;;;;;12.80;6.82;;;9.60;99.90;;;;;;5023381;28;20111;-76
2024/02/12 12:08:58;;;;;;;14.57;6.68;;;9.60;99.90;;;;;;5018041;28;20024;-75
2024/02/12 12:11:24;;;;;;;12.30;6.55;;;9.60;99.90;;;;;;5022606;28;20079;-77
2024/02/12 12:13:59;;;;;;;15.50;7.57;;;9.60;99.90;;;;;;5022428;28;20120;-75
2024/02/12 12:16:27;;;;;;;15.43;7.22;;;9.60;99.90;;;;;;5025741;28;20520;-76
2024/02/12 12:18:53;;;;;;;16.50;7.47;;;9.60;99.90;;;;;;5025090;28;20064;-74
2024/02/12 12:21:20;;;;;;;16.40;7.72;;;9.70;99.90;;;;;;5022892;28;20044;-75
2024/02/12 12:23:51;;;;;;;15.55;7.95;;;9.70;99.90;;;;;;5019197;28;20026;-76
2024/02/12 12:26:19;;;;;;;13.93;7.50;;;9.70;99.90;;;;;;5032026;28;20056;-76
2024/02/12 12:28:45;;;;;;;16.70;7.97;;;9.70;99.90;;;;;;5033821;28;20026;-74
2024/02/12 12:31:11;;;;;;;13.93;7.10;;;9.70;99.90;;;;;;5024720;28;20401;-75
2024/02/12 12:33:37;;;;;;;10.43;6.60;;;9.80;99.90;;;;;;5029204;28;20105;-78
2024/02/12 12:36:10;;;;;;;10.05;5.88;;;9.90;99.90;;;;;;5030726;28;20032;-77
2024/02/12 12:38:37;;;;;;;10.75;6.65;;;10.00;99.90;;;;;;5033614;28;20021;-74
2024/02/12 12:41:06;;;;;;;13.30;7.18;;;10.20;99.90;;;;;;5018343;28;20545;-76
2024/02/12 12:43:33;;;;;;;11.38;6.10;;;10.30;99.90;;;;;;5017699;28;20036;-76
2024/02/12 12:45:59;;;;;;;9.50;6.13;;;10.40;99.90;;;;;;5025898;28;20030;-75
2024/02/12 12:48:24;;;;;;;9.68;5.90;;;10.40;99.90;;;;;;5031093;28;20386;-75
2024/02/12 12:50:50;;;;;;;12.10;5.40;;;10.50;99.90;;;;;;5025573;28;20492;-75
2024/02/12 12:53:16;;;;;;;7.82;5.15;;;10.50;99.90;;;;;;5030251;28;20025;-76